createdAt,value
2018-07-31T00:00:59.910Z,67.88
2018-07-31T00:01:59.657Z,68.84
2018-07-31T00:02:59.906Z,68.23
2018-07-31T00:03:59.655Z,68.55
2018-07-31T00:04:59.904Z,68.52
2018-07-31T00:05:59.903Z,68.81
2018-07-31T00:06:59.903Z,69
2018-07-31T00:07:59.902Z,69
2018-07-31T00:08:59.648Z,68.62
2018-07-31T00:09:59.650Z,68.71
2018-07-31T00:10:59.900Z,68.71
2018-07-31T00:11:59.900Z,68.91
2018-07-31T00:12:59.895Z,68.71
2018-07-31T00:13:59.892Z,69.1
2018-07-31T00:14:59.893Z,69.39
2018-07-31T00:15:59.639Z,69.87
2018-07-31T00:16:59.639Z,69.29
2018-07-31T00:17:59.888Z,69.39
2018-07-31T00:18:59.889Z,69.68
2018-07-31T00:19:59.885Z,69.29
2018-07-31T00:20:59.635Z,69.39
2018-07-31T00:21:59.887Z,69.68
2018-07-31T00:22:59.882Z,69.87
2018-07-31T00:23:59.881Z,69.78
2018-07-31T00:24:59.880Z,70.06
2018-07-31T00:25:59.878Z,70.16
2018-07-31T00:26:59.626Z,70.06
2018-07-31T00:27:59.876Z,70.06
2018-07-31T00:28:59.876Z,69.97
2018-07-31T00:29:59.872Z,69.97
2018-07-31T00:30:59.620Z,70.36
2018-07-31T00:31:59.870Z,70.45
2018-07-31T00:32:59.869Z,70.36
2018-07-31T00:33:59.868Z,70.36
2018-07-31T00:34:59.864Z,71.12
2018-07-31T00:35:59.864Z,71.12
2018-07-31T00:36:59.865Z,71.12
2018-07-31T00:37:59.863Z,71.51
2018-07-31T00:38:59.866Z,71.22
2018-07-31T00:39:59.859Z,71.51
2018-07-31T00:40:59.862Z,71.22
2018-07-31T00:41:59.856Z,71.8
2018-07-31T00:42:59.859Z,71.9
2018-07-31T00:43:59.854Z,71.9
2018-07-31T00:44:59.857Z,72.58
2018-07-31T00:45:59.852Z,72.19
2018-07-31T00:46:59.849Z,72.19
2018-07-31T00:47:59.854Z,72.28
2018-07-31T00:48:59.594Z,72.15
2018-07-31T00:49:59.847Z,72.86
2018-07-31T00:50:59.843Z,72.73
2018-07-31T00:51:59.843Z,72.73
2018-07-31T00:52:59.839Z,72.86
2018-07-31T00:53:59.838Z,72.58
2018-07-31T00:54:59.841Z,73.11
2018-07-31T00:55:59.841Z,73.6
2018-07-31T00:56:59.833Z,73.69
2018-07-31T00:57:59.836Z,73.69
2018-07-31T00:58:59.832Z,72.92
2018-07-31T00:59:59.833Z,73.6
2018-07-31T01:00:59.828Z,73.69
2018-07-31T01:01:59.830Z,73.5
2018-07-31T01:02:59.826Z,73.89
2018-07-31T01:03:59.822Z,73.99
2018-07-31T01:04:59.821Z,74.08
2018-07-31T01:05:59.826Z,74.18
2018-07-31T01:06:59.820Z,74.57
2018-07-31T01:07:59.818Z,75.14
2018-07-31T01:08:59.816Z,74.85
2018-07-31T01:09:59.815Z,75.43
2018-07-31T01:10:59.909Z,75.14
2018-07-31T01:11:59.811Z,75.14
2018-07-31T01:12:59.812Z,75.34
2018-07-31T01:13:59.810Z,75.34
2018-07-31T01:14:59.809Z,75.43
2018-07-31T01:15:59.806Z,75.3
2018-07-31T01:16:59.805Z,75.4
2018-07-31T01:17:59.806Z,75.49
2018-07-31T01:18:59.801Z,75.62
2018-07-31T01:19:59.799Z,75.82
2018-07-31T01:20:59.798Z,76.07
2018-07-31T01:21:59.795Z,75.97
2018-07-31T01:22:59.799Z,76.45
2018-07-31T01:23:59.793Z,76.07
2018-07-31T01:24:59.794Z,76.75
2018-07-31T01:25:59.789Z,77.42
2018-07-31T01:26:59.787Z,77.51
2018-07-31T01:27:59.787Z,78.19
2018-07-31T01:28:59.784Z,77.81
2018-07-31T01:29:59.782Z,78.29
2018-07-31T01:30:59.781Z,78.29
2018-07-31T01:31:59.779Z,78.48
2018-07-31T01:32:59.776Z,78.92
2018-07-31T01:33:59.775Z,79.31
2018-07-31T01:34:59.773Z,79.11
2018-07-31T01:35:59.778Z,79.5
2018-07-31T01:36:59.770Z,79.89
2018-07-31T01:37:59.770Z,79.41
2018-07-31T01:38:59.772Z,79.89
2018-07-31T01:39:59.770Z,79.5
2018-07-31T01:40:59.762Z,80.18
2018-07-31T01:41:59.760Z,80.56
2018-07-31T01:42:59.508Z,80.27
2018-07-31T01:43:59.761Z,79.98
2018-07-31T01:44:59.757Z,80.37
2018-07-31T01:45:59.777Z,80.18
2018-07-31T01:46:59.752Z,80.18
2018-07-31T01:47:59.748Z,80.85
2018-07-31T01:48:59.750Z,81.14
2018-07-31T01:49:59.745Z,80.76
2018-07-31T01:50:59.743Z,81.24
2018-07-31T01:51:59.740Z,80.94
2018-07-31T01:52:59.742Z,81.43
2018-07-31T01:53:59.741Z,81.14
2018-07-31T01:54:59.739Z,81.62
2018-07-31T01:55:59.733Z,82.01
2018-07-31T01:56:59.736Z,81.91
2018-07-31T01:57:59.730Z,82.59
2018-07-31T01:58:59.731Z,82.16
2018-07-31T01:59:59.474Z,82.49
2018-07-31T02:00:59.473Z,82.59
2018-07-31T02:01:59.721Z,82.54
2018-07-31T02:02:59.719Z,82.74
2018-07-31T02:03:59.723Z,82.45
2018-07-31T02:04:59.714Z,82.64
2018-07-31T02:05:59.712Z,83.41
2018-07-31T02:06:59.459Z,83.51
2018-07-31T02:07:59.709Z,83.61
2018-07-31T02:08:59.707Z,83.51
2018-07-31T02:09:59.705Z,83.99
2018-07-31T02:10:59.703Z,83.99
2018-07-31T02:11:59.705Z,84.18
2018-07-31T02:12:59.698Z,84.28
2018-07-31T02:13:59.696Z,84.86
2018-07-31T02:14:59.695Z,84.66
2018-07-31T02:15:59.692Z,84.66
2018-07-31T02:16:59.689Z,84.86
2018-07-31T02:17:59.692Z,85.05
2018-07-31T02:18:59.686Z,84.86
2018-07-31T02:19:59.433Z,85.34
2018-07-31T02:20:59.680Z,85.58
2018-07-31T02:21:59.678Z,85.53
2018-07-31T02:22:59.677Z,85.39
2018-07-31T02:23:59.673Z,85.68
2018-07-31T02:24:59.676Z,86.26
2018-07-31T02:25:59.672Z,85.87
2018-07-31T02:26:59.668Z,85.58
2018-07-31T02:27:59.885Z,85.97
2018-07-31T02:28:59.662Z,86.07
2018-07-31T02:29:59.410Z,86.16
2018-07-31T02:30:59.660Z,86.26
2018-07-31T02:31:59.657Z,86.16
2018-07-31T02:32:59.656Z,86.65
2018-07-31T02:33:59.400Z,86.55
2018-07-31T02:34:59.650Z,86.93
2018-07-31T02:35:59.652Z,86.26
2018-07-31T02:36:59.647Z,86.83
2018-07-31T02:37:59.654Z,87.03
2018-07-31T02:38:59.641Z,87.03
2018-07-31T02:39:59.388Z,86.55
2018-07-31T02:40:59.640Z,87.22
2018-07-31T02:41:59.638Z,86.93
2018-07-31T02:42:59.637Z,86.98
2018-07-31T02:43:59.630Z,87.07
2018-07-31T02:44:59.638Z,86.98
2018-07-31T02:45:59.643Z,87.07
2018-07-31T02:46:59.395Z,87.03
2018-07-31T02:47:59.624Z,87.41
2018-07-31T02:48:59.619Z,87.12
2018-07-31T02:49:59.618Z,87.22
2018-07-31T02:50:59.623Z,87.12
2018-07-31T02:51:59.624Z,87.32
2018-07-31T02:52:59.697Z,87.12
2018-07-31T02:53:59.611Z,87.03
2018-07-31T02:54:59.603Z,86.93
2018-07-31T02:55:59.601Z,87.12
2018-07-31T02:56:59.621Z,87.6
2018-07-31T02:57:59.605Z,87.41
2018-07-31T02:58:59.598Z,87.8
2018-07-31T02:59:59.594Z,87.8
2018-07-31T03:00:59.340Z,87.7
2018-07-31T03:01:59.589Z,88.28
2018-07-31T03:02:59.338Z,88.18
2018-07-31T03:03:59.581Z,88.57
2018-07-31T03:04:59.581Z,88.57
2018-07-31T03:05:59.587Z,88.95
2018-07-31T03:06:59.575Z,89.43
2018-07-31T03:07:59.620Z,89.63
2018-07-31T03:08:59.572Z,89.63
2018-07-31T03:09:59.572Z,89.53
2018-07-31T03:10:59.580Z,89.72
2018-07-31T03:11:59.568Z,89.92
2018-07-31T03:12:59.564Z,89.72
2018-07-31T03:13:59.556Z,89.53
2018-07-31T03:14:59.304Z,89.58
2018-07-31T03:15:59.555Z,89.58
2018-07-31T03:16:59.552Z,89.58
2018-07-31T03:17:59.558Z,89.82
2018-07-31T03:18:59.550Z,89.49
2018-07-31T03:19:59.550Z,89.58
2018-07-31T03:20:59.556Z,89.87
2018-07-31T03:21:59.546Z,90.69
2018-07-31T03:22:59.536Z,90.26
2018-07-31T03:23:59.539Z,90.26
2018-07-31T03:24:59.551Z,90.35
2018-07-31T03:25:59.276Z,90.4
2018-07-31T03:26:59.526Z,90.35
2018-07-31T03:27:59.524Z,90.26
2018-07-31T03:28:59.522Z,90.64
2018-07-31T03:29:59.267Z,89.97
2018-07-31T03:30:59.517Z,90.16
2018-07-31T03:31:59.515Z,90.45
2018-07-31T03:32:59.511Z,90.16
2018-07-31T03:33:59.508Z,90.45
2018-07-31T03:34:59.511Z,90.4
2018-07-31T03:35:59.503Z,90.45
2018-07-31T03:36:59.504Z,90.64
2018-07-31T03:37:59.497Z,90.06
2018-07-31T03:38:59.498Z,89.92
2018-07-31T03:39:59.495Z,89.72
2018-07-31T03:40:59.489Z,90.01
2018-07-31T03:41:59.487Z,89.82
2018-07-31T03:42:59.486Z,89.53
2018-07-31T03:43:59.487Z,89.24
2018-07-31T03:44:59.480Z,89.15
2018-07-31T03:45:59.235Z,89.24
2018-07-31T03:46:59.224Z,89.43
2018-07-31T03:47:59.478Z,88.95
2018-07-31T03:48:59.219Z,89.53
2018-07-31T03:49:59.540Z,89.58
2018-07-31T03:50:59.214Z,88.9
2018-07-31T03:51:59.462Z,88.67
2018-07-31T03:52:59.209Z,88.38
2018-07-31T03:53:59.207Z,88.32
2018-07-31T03:54:59.457Z,88.13
2018-07-31T03:55:59.458Z,88.04
2018-07-31T03:56:59.451Z,87.74
2018-07-31T03:57:59.450Z,87.55
2018-07-31T03:58:59.446Z,87.07
2018-07-31T03:59:59.193Z,86.78
2018-07-31T04:00:59.441Z,86.98
2018-07-31T04:01:59.188Z,86.88
2018-07-31T04:02:59.441Z,86.01
2018-07-31T04:03:59.435Z,86.15
2018-07-31T04:04:59.182Z,86.35
2018-07-31T04:05:59.431Z,85.47
2018-07-31T04:06:59.427Z,85.28
2018-07-31T04:07:59.429Z,85.03
2018-07-31T04:08:59.425Z,84.27
2018-07-31T04:09:59.170Z,84.17
2018-07-31T04:10:59.169Z,83.3
2018-07-31T04:11:59.167Z,82.67
2018-07-31T04:12:59.168Z,82.42
2018-07-31T04:13:59.416Z,82.51
2018-07-31T04:14:59.418Z,81.35
2018-07-31T04:15:59.161Z,81.01
2018-07-31T04:16:59.641Z,80.62
2018-07-31T04:17:59.413Z,79.41
2018-07-31T04:18:59.161Z,78.73
2018-07-31T04:19:59.161Z,78.09
2018-07-31T04:20:59.410Z,77.75
2018-07-31T04:21:59.413Z,77.07
2018-07-31T04:22:59.411Z,76.43
2018-07-31T04:23:59.409Z,75.75
2018-07-31T04:24:59.409Z,74.53
2018-07-31T04:25:59.157Z,73.57
2018-07-31T04:26:59.411Z,72.92
2018-07-31T04:27:59.413Z,72.38
2018-07-31T04:28:59.412Z,71.02
2018-07-31T04:29:59.454Z,70.86
2018-07-31T04:30:59.165Z,69.6
2018-07-31T04:31:59.418Z,69.73
2018-07-31T04:32:59.418Z,68.6
2018-07-31T04:33:59.423Z,67.44
2018-07-31T04:34:59.421Z,67.18
2018-07-31T04:35:59.624Z,65.85
2018-07-31T04:36:59.176Z,64.98
2018-07-31T04:37:59.433Z,63.94
2018-07-31T04:38:59.432Z,63.49
2018-07-31T04:39:59.185Z,63.1
2018-07-31T04:40:59.440Z,62.06
2018-07-31T04:41:59.193Z,61.02
2018-07-31T04:42:59.447Z,59.39
2018-07-31T04:43:59.457Z,58.71
2018-07-31T04:44:59.467Z,56.99
2018-07-31T04:45:59.463Z,55.94
2018-07-31T04:46:59.464Z,55.46
2018-07-31T04:47:59.470Z,55.36
2018-07-31T04:48:59.476Z,54.9
2018-07-31T04:49:59.485Z,54.21
2018-07-31T04:50:59.488Z,53.46
2018-07-31T04:51:59.496Z,52.78
2018-07-31T04:52:59.498Z,52.31
2018-07-31T04:53:59.506Z,51.76
2018-07-31T04:54:59.513Z,51.17
2018-07-31T04:55:59.518Z,50.32
2018-07-31T04:56:59.524Z,49.65
2018-07-31T04:57:59.279Z,49.07
2018-07-31T04:58:59.325Z,48.8
2018-07-31T04:59:59.553Z,48.63
2018-07-31T05:00:59.550Z,47.85
2018-07-31T05:01:59.560Z,47.55
2018-07-31T05:02:59.568Z,46.98
2018-07-31T05:03:59.574Z,46.23
2018-07-31T05:04:59.583Z,45.73
2018-07-31T05:05:59.597Z,45.37
2018-07-31T05:06:59.599Z,44.98
2018-07-31T05:07:59.608Z,44.31
2018-07-31T05:08:59.614Z,43.43
2018-07-31T05:09:59.371Z,43.27
2018-07-31T05:10:59.702Z,42.98
2018-07-31T05:11:59.639Z,42.79
2018-07-31T05:12:59.655Z,41.92
2018-07-31T05:13:59.658Z,41.72
2018-07-31T05:14:59.667Z,41.63
2018-07-31T05:15:59.679Z,41.43
2018-07-31T05:16:59.685Z,41.84
2018-07-31T05:17:59.695Z,40.78
2018-07-31T05:18:59.707Z,40.88
2018-07-31T05:19:59.713Z,40.88
2018-07-31T05:20:59.472Z,41.08
2018-07-31T05:21:59.733Z,40.8
2018-07-31T05:22:59.749Z,39.72
2018-07-31T05:23:59.752Z,39.44
2018-07-31T05:24:59.762Z,39.25
2018-07-31T05:25:59.772Z,38.85
2018-07-31T05:26:59.782Z,38.68
2018-07-31T05:27:59.793Z,38.2
2018-07-31T05:28:59.809Z,37.91
2018-07-31T05:29:59.816Z,37.41
2018-07-31T05:30:59.825Z,37.05
2018-07-31T05:31:59.836Z,37.45
2018-07-31T05:32:59.848Z,36.68
2018-07-31T05:33:59.857Z,36.38
2018-07-31T05:34:59.871Z,35.91
2018-07-31T05:35:59.883Z,35.52
2018-07-31T05:36:59.894Z,35.63
2018-07-31T05:37:59.901Z,35.53
2018-07-31T05:38:59.914Z,35.63
2018-07-31T05:39:59.674Z,35.04
2018-07-31T05:40:59.936Z,34.66
2018-07-31T05:41:59.952Z,34.17
2018-07-31T05:42:59.967Z,34.08
2018-07-31T05:43:59.972Z,33.98
2018-07-31T05:44:59.986Z,33.89
2018-07-31T05:45:59.746Z,34
2018-07-31T05:47:00.008Z,33.21
2018-07-31T05:47:59.768Z,33.21
2018-07-31T05:49:00.031Z,32.93
2018-07-31T05:50:00.049Z,32.64
2018-07-31T05:51:00.058Z,32.34
2018-07-31T05:52:00.203Z,32.24
2018-07-31T05:52:59.831Z,32.73
2018-07-31T05:54:00.098Z,31.96
2018-07-31T05:55:00.111Z,32.06
2018-07-31T05:55:59.869Z,32.15
2018-07-31T05:57:00.133Z,31.46
2018-07-31T05:58:00.149Z,31.08
2018-07-31T05:59:00.159Z,31.57
2018-07-31T05:59:59.920Z,31.38
2018-07-31T06:01:00.185Z,30.68
2018-07-31T06:01:59.948Z,31.08
2018-07-31T06:03:00.211Z,30.98
2018-07-31T06:04:00.228Z,31.29
2018-07-31T06:05:00.239Z,31.29
2018-07-31T06:06:00.251Z,31.31
2018-07-31T06:07:00.272Z,30.91
2018-07-31T06:08:00.284Z,30.41
2018-07-31T06:09:00.292Z,30.52
2018-07-31T06:10:00.311Z,30.63
2018-07-31T06:11:00.319Z,30.43
2018-07-31T06:12:00.335Z,30.25
2018-07-31T06:13:00.348Z,30.35
2018-07-31T06:14:00.363Z,29.65
2018-07-31T06:15:00.377Z,29.65
2018-07-31T06:16:00.390Z,29.57
2018-07-31T06:17:00.405Z,29.57
2018-07-31T06:18:00.424Z,29.47
2018-07-31T06:19:00.437Z,29.28
2018-07-31T06:20:00.197Z,29.19
2018-07-31T06:21:00.212Z,29.28
2018-07-31T06:22:00.480Z,28.7
2018-07-31T06:23:00.492Z,28.29
2018-07-31T06:24:00.507Z,28.8
2018-07-31T06:25:00.522Z,28.99
2018-07-31T06:26:00.537Z,29.19
2018-07-31T06:27:00.605Z,29.2
2018-07-31T06:28:00.594Z,29.39
2018-07-31T06:29:00.330Z,29.1
2018-07-31T06:30:00.598Z,29.2
2018-07-31T06:31:00.613Z,29
2018-07-31T06:32:00.629Z,28.52
2018-07-31T06:33:00.753Z,28.32
2018-07-31T06:34:00.659Z,28.62
2018-07-31T06:35:00.673Z,28.33
2018-07-31T06:36:00.690Z,28.33
2018-07-31T06:37:00.705Z,28.73
2018-07-31T06:38:00.722Z,28.33
2018-07-31T06:39:00.737Z,27.95
2018-07-31T06:40:00.753Z,28.15
2018-07-31T06:41:00.519Z,27.95
2018-07-31T06:42:00.534Z,27.95
2018-07-31T06:43:00.805Z,28.05
2018-07-31T06:44:00.566Z,28.34
2018-07-31T06:45:00.834Z,28.44
2018-07-31T06:46:00.852Z,28.25
2018-07-31T06:47:00.871Z,27.95
2018-07-31T06:48:00.881Z,28.15
2018-07-31T06:49:00.900Z,27.95
2018-07-31T06:50:00.915Z,27.95
2018-07-31T06:51:00.938Z,27.95
2018-07-31T06:52:00.696Z,27.95
2018-07-31T06:53:00.964Z,27.95
2018-07-31T06:54:00.980Z,27.95
2018-07-31T06:55:00.996Z,28.05
2018-07-31T06:56:01.018Z,27.94
2018-07-31T06:57:01.048Z,28.33
2018-07-31T06:58:00.795Z,28.43
2018-07-31T06:59:01.062Z,28.33
2018-07-31T07:00:01.088Z,28.33
2018-07-31T07:01:01.096Z,28.43
2018-07-31T07:02:01.225Z,28.85
2018-07-31T07:03:01.129Z,28.34
2018-07-31T07:04:01.145Z,28.34
2018-07-31T07:05:01.164Z,28.05
2018-07-31T07:06:01.178Z,28.15
2018-07-31T07:07:01.195Z,28.34
2018-07-31T07:08:01.216Z,28.33
2018-07-31T07:09:01.227Z,28.43
2018-07-31T07:10:01.257Z,28.53
2018-07-31T07:11:01.263Z,28.23
2018-07-31T07:12:01.281Z,28.43
2018-07-31T07:13:01.294Z,28.73
2018-07-31T07:14:01.311Z,29.21
2018-07-31T07:15:01.329Z,29.39
2018-07-31T07:16:01.095Z,29.1
2018-07-31T07:17:01.366Z,29
2018-07-31T07:18:01.379Z,29.1
2018-07-31T07:19:01.396Z,29.1
2018-07-31T07:20:01.162Z,29.39
2018-07-31T07:21:01.428Z,29.2
2018-07-31T07:22:01.446Z,29.21
2018-07-31T07:23:01.463Z,29.41
2018-07-31T07:24:01.227Z,29.11
2018-07-31T07:25:01.497Z,29.02
2018-07-31T07:26:01.262Z,29.02
2018-07-31T07:27:01.531Z,28.81
2018-07-31T07:28:01.611Z,28.12
2018-07-31T07:29:01.564Z,28.42
2018-07-31T07:30:01.330Z,28.01
2018-07-31T07:31:01.346Z,28.41
2018-07-31T07:32:01.368Z,28.7
2018-07-31T07:33:01.636Z,28.6
2018-07-31T07:34:01.967Z,28.99
2018-07-31T07:35:01.414Z,28.79
2018-07-31T07:36:01.680Z,29.17
2018-07-31T07:37:01.698Z,29.46
2018-07-31T07:38:01.470Z,29.75
2018-07-31T07:39:01.479Z,30.23
2018-07-31T07:40:01.755Z,30.13
2018-07-31T07:41:01.781Z,30.53
2018-07-31T07:42:01.779Z,30.63
2018-07-31T07:43:01.800Z,30.43
2018-07-31T07:44:01.815Z,30.35
2018-07-31T07:45:01.834Z,30.35
2018-07-31T07:46:01.846Z,30.13
2018-07-31T07:47:01.865Z,30.04
2018-07-31T07:48:01.879Z,30.53
2018-07-31T07:49:01.896Z,29.83
2018-07-31T07:50:01.915Z,30.23
2018-07-31T07:51:01.930Z,30.53
2018-07-31T07:52:01.947Z,30.52
2018-07-31T07:53:01.960Z,30.32
2018-07-31T07:54:02.224Z,30.41
2018-07-31T07:55:02.008Z,30.12
2018-07-31T07:56:02.014Z,30.3
2018-07-31T07:57:02.027Z,30.8
2018-07-31T07:58:02.044Z,30.58
2018-07-31T07:59:02.067Z,30.68
2018-07-31T08:00:01.824Z,30.49
2018-07-31T08:01:02.107Z,30.79
2018-07-31T08:02:02.116Z,30.67
2018-07-31T08:03:02.124Z,31.25
2018-07-31T08:04:02.241Z,31.15
2018-07-31T08:05:02.159Z,31.35
2018-07-31T08:06:02.171Z,31.54
2018-07-31T08:07:01.937Z,31.54
2018-07-31T08:08:02.204Z,32.03
2018-07-31T08:09:02.221Z,31.73
2018-07-31T08:10:02.237Z,31.82
2018-07-31T08:11:02.253Z,32.14
2018-07-31T08:12:02.267Z,31.53
2018-07-31T08:13:02.284Z,32.12
2018-07-31T08:14:02.306Z,32.4
2018-07-31T08:15:02.492Z,33
2018-07-31T08:16:02.330Z,33
2018-07-31T08:17:02.097Z,33
2018-07-31T08:18:02.371Z,32.5
2018-07-31T08:19:02.125Z,32.1
2018-07-31T08:20:02.392Z,31.62
2018-07-31T08:21:02.408Z,30.92
2018-07-31T08:22:02.422Z,31.02
2018-07-31T08:23:02.440Z,31.32
2018-07-31T08:24:02.479Z,31.51
2018-07-31T08:25:02.471Z,31.71
2018-07-31T08:26:02.493Z,31.62
2018-07-31T08:27:02.501Z,32.21
2018-07-31T08:28:02.516Z,32.4
2018-07-31T08:29:02.538Z,32.68
2018-07-31T08:30:02.547Z,32.29
2018-07-31T08:31:02.563Z,32.49
2018-07-31T08:32:02.581Z,32.49
2018-07-31T08:33:02.591Z,32.68
2018-07-31T08:34:02.609Z,32.4
2018-07-31T08:35:02.628Z,32.98
2018-07-31T08:36:02.639Z,33.09
2018-07-31T08:37:02.654Z,31.81
2018-07-31T08:38:02.671Z,31.41
2018-07-31T08:39:02.688Z,32.1
2018-07-31T08:40:02.450Z,31.91
2018-07-31T08:41:02.719Z,31.5
2018-07-31T08:42:02.496Z,31.99
2018-07-31T08:43:02.758Z,31.6
2018-07-31T08:44:02.763Z,31.4
2018-07-31T08:45:02.779Z,31.5
2018-07-31T08:46:02.796Z,31.01
2018-07-31T08:47:02.812Z,31.48
2018-07-31T08:48:02.834Z,31.1
2018-07-31T08:49:02.845Z,30
2018-07-31T08:50:02.858Z,30.6
2018-07-31T08:51:02.876Z,31.48
2018-07-31T08:52:02.888Z,31.96
2018-07-31T08:53:02.903Z,32.65
2018-07-31T08:54:02.918Z,32.14
2018-07-31T08:55:02.681Z,32.34
2018-07-31T08:56:02.947Z,31.75
2018-07-31T08:57:03.121Z,32.52
2018-07-31T08:58:02.975Z,32.52
2018-07-31T08:59:02.986Z,32.51
2018-07-31T09:00:03.005Z,33.48
2018-07-31T09:01:03.014Z,33.97
2018-07-31T09:02:03.029Z,34.27
2018-07-31T09:03:03.041Z,33.65
2018-07-31T09:04:03.050Z,33.56
2018-07-31T09:05:03.062Z,33.54
2018-07-31T09:06:03.075Z,33.84
2018-07-31T09:07:03.087Z,34.41
2018-07-31T09:08:02.852Z,35.18
2018-07-31T09:09:03.199Z,34.97
2018-07-31T09:10:02.862Z,34.38
2018-07-31T09:11:03.129Z,34.26
2018-07-31T09:12:03.134Z,34.56
2018-07-31T09:13:02.890Z,34.56
2018-07-31T09:14:03.155Z,34.95
2018-07-31T09:15:03.161Z,35.42
2018-07-31T09:16:02.922Z,35.33
2018-07-31T09:17:03.177Z,35.33
2018-07-31T09:18:03.188Z,34.72
2018-07-31T09:19:03.196Z,35.31
2018-07-31T09:20:03.204Z,35.31
2018-07-31T09:21:03.212Z,36.27
2018-07-31T09:22:03.220Z,36.57
2018-07-31T09:23:03.231Z,36.47
2018-07-31T09:24:03.238Z,37.05
2018-07-31T09:25:03.247Z,37.25
2018-07-31T09:26:03.254Z,36.76
2018-07-31T09:27:03.261Z,35.66
2018-07-31T09:28:03.268Z,35.76
2018-07-31T09:29:03.025Z,36.16
2018-07-31T09:30:03.301Z,36.35
2018-07-31T09:31:03.678Z,36.84
2018-07-31T09:32:03.309Z,35.08
2018-07-31T09:33:03.306Z,36.45
2018-07-31T09:34:03.333Z,36.84
2018-07-31T09:35:03.320Z,35.76
2018-07-31T09:36:03.328Z,36.35
2018-07-31T09:37:03.336Z,36.16
2018-07-31T09:38:03.447Z,37.63
2018-07-31T09:39:03.099Z,36.84
2018-07-31T09:40:03.358Z,37.23
2018-07-31T09:41:03.363Z,35.86
2018-07-31T09:42:03.372Z,35.86
2018-07-31T09:43:03.383Z,35.86
2018-07-31T09:44:03.392Z,36.16
2018-07-31T09:45:03.445Z,36.45
2018-07-31T09:46:03.150Z,36.35
2018-07-31T09:47:03.407Z,36.65
2018-07-31T09:48:03.170Z,37.52
2018-07-31T09:49:03.420Z,37.52
2018-07-31T09:50:03.431Z,37.82
2018-07-31T09:51:03.441Z,37.73
2018-07-31T09:52:03.190Z,37.52
2018-07-31T09:53:03.467Z,37.52
2018-07-31T09:54:03.460Z,37.33
2018-07-31T09:55:03.474Z,37.23
2018-07-31T09:56:03.476Z,36.45
2018-07-31T09:57:03.499Z,36.84
2018-07-31T09:58:03.484Z,35.66
2018-07-31T09:59:03.601Z,34.9
2018-07-31T10:00:03.510Z,34.41
2018-07-31T10:01:03.510Z,34.31
2018-07-31T10:02:03.516Z,34.88
2018-07-31T10:03:03.522Z,34.59
2018-07-31T10:04:03.532Z,34.69
2018-07-31T10:05:03.598Z,35.08
2018-07-31T10:06:03.540Z,34.98
2018-07-31T10:07:03.550Z,35.27
2018-07-31T10:08:03.555Z,35.39
2018-07-31T10:09:03.561Z,35.08
2018-07-31T10:10:03.568Z,35.49
2018-07-31T10:11:03.577Z,34.51
2018-07-31T10:12:03.616Z,34.51
2018-07-31T10:13:03.590Z,33.53
2018-07-31T10:14:03.344Z,33.72
2018-07-31T10:15:03.603Z,33.62
2018-07-31T10:16:03.611Z,33.72
2018-07-31T10:17:03.627Z,33.62
2018-07-31T10:18:03.756Z,34.31
2018-07-31T10:19:03.632Z,34.01
2018-07-31T10:20:03.646Z,33.62
2018-07-31T10:21:03.646Z,34.7
2018-07-31T10:22:03.651Z,35.49
2018-07-31T10:23:03.685Z,35.39
2018-07-31T10:24:03.712Z,34.41
2018-07-31T10:25:03.675Z,34.8
2018-07-31T10:26:03.428Z,35.29
2018-07-31T10:27:03.689Z,35.39
2018-07-31T10:28:03.697Z,34.9
2018-07-31T10:29:03.449Z,34.51
2018-07-31T10:30:03.707Z,34.21
2018-07-31T10:31:04.127Z,33.82
2018-07-31T10:32:03.469Z,33.72
2018-07-31T10:33:03.480Z,34.01
2018-07-31T10:34:03.739Z,34.11
2018-07-31T10:35:03.748Z,34.51
2018-07-31T10:36:03.751Z,35.39
2018-07-31T10:37:03.505Z,35.68
2018-07-31T10:38:03.515Z,35.1
2018-07-31T10:39:03.770Z,35.1
2018-07-31T10:40:03.779Z,35.29
2018-07-31T10:41:03.790Z,35.1
2018-07-31T10:42:03.795Z,36.19
2018-07-31T10:43:03.804Z,36.37
2018-07-31T10:44:03.611Z,35.29
2018-07-31T10:45:03.812Z,35
2018-07-31T10:46:03.567Z,35
2018-07-31T10:47:03.576Z,34.8
2018-07-31T10:48:03.834Z,34.52
2018-07-31T10:49:03.725Z,34.9
2018-07-31T10:50:03.596Z,35.29
2018-07-31T10:51:03.637Z,35.58
2018-07-31T10:52:03.608Z,35.29
2018-07-31T10:53:03.871Z,34.92
2018-07-31T10:54:03.876Z,33.33
2018-07-31T10:55:03.991Z,33.15
2018-07-31T10:56:03.889Z,34.13
2018-07-31T10:57:03.897Z,34.61
2018-07-31T10:58:03.980Z,35.31
2018-07-31T10:59:03.910Z,36.29
2018-07-31T11:00:04.233Z,36.78
2018-07-31T11:01:03.924Z,36.09
2018-07-31T11:02:03.934Z,36.19
2018-07-31T11:03:04.044Z,35.11
2018-07-31T11:04:04.287Z,35.41
2018-07-31T11:05:03.955Z,35.21
2018-07-31T11:06:03.709Z,35.21
2018-07-31T11:07:03.972Z,35.41
2018-07-31T11:08:03.991Z,33.94
2018-07-31T11:09:03.984Z,34.23
2018-07-31T11:10:03.998Z,34.62
2018-07-31T11:11:03.993Z,34.62
2018-07-31T11:12:04.004Z,34.52
2018-07-31T11:13:03.756Z,34.92
2018-07-31T11:14:03.762Z,34.83
2018-07-31T11:15:03.770Z,34.62
2018-07-31T11:16:04.034Z,35.02
2018-07-31T11:17:04.041Z,35.52
2018-07-31T11:18:04.045Z,35.82
2018-07-31T11:19:04.081Z,35.91
2018-07-31T11:20:04.058Z,35.33
2018-07-31T11:21:04.290Z,34.64
2018-07-31T11:22:04.072Z,35.03
2018-07-31T11:23:03.827Z,34.81
2018-07-31T11:24:04.090Z,35.23
2018-07-31T11:25:04.101Z,34.92
2018-07-31T11:26:03.847Z,35.13
2018-07-31T11:27:03.855Z,35.8
2018-07-31T11:28:04.114Z,35.33
2018-07-31T11:29:03.869Z,35.33
2018-07-31T11:30:04.129Z,35.03
2018-07-31T11:31:04.134Z,34.54
2018-07-31T11:32:04.143Z,34.93
2018-07-31T11:33:04.291Z,35.23
2018-07-31T11:34:04.159Z,35.72
2018-07-31T11:35:03.911Z,35.82
2018-07-31T11:36:04.170Z,35.42
2018-07-31T11:37:04.177Z,35.13
2018-07-31T11:38:04.185Z,34.15
2018-07-31T11:39:04.193Z,34.64
2018-07-31T11:40:04.198Z,34.93
2018-07-31T11:41:03.953Z,34.64
2018-07-31T11:42:03.961Z,34.93
2018-07-31T11:43:03.966Z,34.64
2018-07-31T11:44:04.443Z,34.64
2018-07-31T11:45:04.234Z,34.15
2018-07-31T11:46:03.989Z,33.75
2018-07-31T11:47:04.000Z,33.65
2018-07-31T11:48:04.003Z,33.95
2018-07-31T11:49:04.010Z,33.65
2018-07-31T11:50:04.134Z,33.75
2018-07-31T11:51:04.275Z,33.56
2018-07-31T11:52:04.283Z,33.58
2018-07-31T11:53:04.291Z,33.26
2018-07-31T11:54:04.044Z,33.85
2018-07-31T11:55:04.314Z,34.44
2018-07-31T11:56:04.058Z,34.85
2018-07-31T11:57:04.321Z,34.95
2018-07-31T11:58:04.073Z,34.26
2018-07-31T11:59:04.080Z,33.87
2018-07-31T12:00:04.343Z,33.77
2018-07-31T12:01:04.096Z,32.98
2018-07-31T12:02:04.368Z,33.18
2018-07-31T12:03:04.109Z,32.79
2018-07-31T12:04:04.117Z,32.4
2018-07-31T12:05:04.124Z,32.4
2018-07-31T12:06:04.131Z,32.2
2018-07-31T12:07:04.140Z,32.79
2018-07-31T12:08:04.399Z,32.41
2018-07-31T12:09:04.152Z,32.5
2018-07-31T12:10:04.160Z,32.71
2018-07-31T12:11:04.426Z,33.28
2018-07-31T12:12:04.431Z,33.2
2018-07-31T12:13:04.182Z,33.1
2018-07-31T12:14:04.526Z,33.79
2018-07-31T12:15:04.198Z,33.69
2018-07-31T12:16:04.620Z,33.89
2018-07-31T12:17:04.215Z,33.79
2018-07-31T12:18:04.476Z,33.79
2018-07-31T12:19:04.508Z,33.29
2018-07-31T12:20:04.233Z,33
2018-07-31T12:21:04.496Z,32.81
2018-07-31T12:22:04.504Z,32.71
2018-07-31T12:23:04.258Z,32.21
2018-07-31T12:24:04.518Z,32.41
2018-07-31T12:25:04.278Z,32.71
2018-07-31T12:26:04.530Z,32.71
2018-07-31T12:27:04.697Z,32.31
2018-07-31T12:28:04.546Z,32.41
2018-07-31T12:29:04.300Z,32.9
2018-07-31T12:30:04.307Z,32.81
2018-07-31T12:31:04.567Z,32.51
2018-07-31T12:32:04.574Z,31.82
2018-07-31T12:33:04.374Z,32.51
2018-07-31T12:34:04.342Z,31.73
2018-07-31T12:35:04.598Z,32.12
2018-07-31T12:36:04.603Z,32.81
2018-07-31T12:37:04.359Z,33.39
2018-07-31T12:38:04.690Z,33.2
2018-07-31T12:39:04.373Z,33.79
2018-07-31T12:40:04.382Z,32.51
2018-07-31T12:41:04.640Z,33.1
2018-07-31T12:42:04.648Z,33.39
2018-07-31T12:43:04.403Z,33.49
2018-07-31T12:44:04.817Z,33.08
2018-07-31T12:45:04.419Z,32.89
2018-07-31T12:46:04.676Z,33.08
2018-07-31T12:47:04.685Z,33
2018-07-31T12:48:04.439Z,33
2018-07-31T12:49:04.700Z,33
2018-07-31T12:50:04.479Z,32.81
2018-07-31T12:51:04.461Z,33.1
2018-07-31T12:52:04.468Z,32.9
2018-07-31T12:53:04.726Z,32.81
2018-07-31T12:54:04.482Z,31.92
2018-07-31T12:55:04.490Z,31.23
2018-07-31T12:56:04.748Z,31.63
2018-07-31T12:57:04.756Z,31.43